Time;durP1;ratioP1;P1;durP2;ratioP2;P2;SDS_P1;SDS_P2;PMS_P1;PMS_P2;Temp;Humidity;BMP_temperature;BMP_pressure;BME280_temperature;BME280_humidity;BME280_pressure;Samples;Min_cycle;Max_cycle;Signal;HPM_P1;HPM_P2
2022/09/23 00:00:35;;;;;;;6.07;5.40;;;11.80;91.90;;;11.87;59.05;95166.00;5025969;28;20471;-58
2022/09/23 00:03:02;;;;;;;4.60;4.30;;;11.70;92.00;;;11.81;58.86;95167.41;5026450;28;20497;-57
2022/09/23 00:05:30;;;;;;;5.70;5.30;;;11.70;91.90;;;11.74;59.04;95164.50;5025488;28;21011;-57
2022/09/23 00:07:57;;;;;;;6.43;5.70;;;11.60;91.90;;;11.69;59.08;95164.06;5022330;28;20453;-58
2022/09/23 00:10:25;;;;;;;5.10;4.70;;;11.60;92.00;;;11.61;59.19;95156.03;5023660;28;20468;-57
2022/09/23 00:12:54;;;;;;;4.77;4.37;;;11.50;92.40;;;11.57;59.56;95159.91;5025678;28;20445;-56
2022/09/23 00:15:24;;;;;;;7.10;5.50;;;11.50;92.40;;;11.53;59.60;95153.28;5025359;28;20468;-57
2022/09/23 00:17:51;;;;;;;9.47;5.20;;;11.40;92.30;;;11.48;59.30;95154.50;5025825;28;20556;-58
2022/09/23 00:20:18;;;;;;;4.77;4.40;;;11.30;92.20;;;11.43;59.35;95148.84;5025104;28;20468;-56
2022/09/23 00:22:46;;;;;;;7.13;4.83;;;11.30;92.20;;;11.39;59.51;95152.72;5025573;28;20494;-57
2022/09/23 00:25:13;;;;;;;5.50;5.00;;;11.30;92.40;;;11.33;59.54;95148.00;5025946;28;20472;-57
2022/09/23 00:27:41;;;;;;;5.30;4.90;;;11.20;92.40;;;11.26;59.38;95149.50;5026049;28;20452;-56
2022/09/23 00:30:11;;;;;;;5.83;4.30;;;11.20;92.40;;;11.21;59.38;95143.81;5021669;28;20503;-57
2022/09/23 00:32:39;;;;;;;4.47;4.17;;;11.10;92.30;;;11.13;59.64;95150.59;5025663;28;20823;-58
2022/09/23 00:35:08;;;;;;;4.90;4.60;;;11.10;92.40;;;11.08;59.81;95147.53;5025105;28;20479;-57
2022/09/23 00:37:35;;;;;;;4.77;4.30;;;11.00;92.50;;;11.03;59.78;95146.28;5025254;28;21010;-57
2022/09/23 00:40:03;;;;;;;5.63;5.03;;;10.90;92.60;;;11.00;60.04;95155.28;5024784;28;20690;-57
2022/09/23 00:42:30;;;;;;;4.50;4.20;;;10.90;92.90;;;10.98;60.54;95149.31;5025649;28;20906;-58
2022/09/23 00:44:58;;;;;;;4.67;4.27;;;10.90;93.20;;;10.95;60.29;95149.59;5021588;28;20461;-57
2022/09/23 00:47:31;;;;;;;5.57;4.43;;;10.80;93.20;;;10.93;60.54;95148.91;5019000;28;20519;-56
2022/09/23 00:50:03;;;;;;;4.80;4.40;;;10.80;93.50;;;10.93;60.71;95143.63;5023826;28;20476;-57
2022/09/23 00:52:31;;;;;;;4.30;4.00;;;10.80;93.60;;;10.92;60.89;95144.59;5025821;28;20449;-58
2022/09/23 00:54:59;;;;;;;5.00;4.60;;;10.80;93.90;;;10.92;61.49;95144.59;5024653;28;20472;-58
2022/09/23 00:57:27;;;;;;;4.47;4.17;;;10.80;94.60;;;10.91;61.22;95143.75;5021843;28;20975;-57
2022/09/23 00:59:54;;;;;;;4.37;4.17;;;10.80;94.30;;;10.90;61.59;95146.53;5024706;28;21034;-58
2022/09/23 01:02:21;;;;;;;3.90;3.67;;;10.80;94.80;;;10.89;61.49;95144.84;5023038;28;21058;-57
2022/09/23 01:04:50;;;;;;;4.00;3.80;;;10.80;94.70;;;10.87;61.49;95141.53;5024847;28;20902;-58
2022/09/23 01:07:18;;;;;;;4.43;4.13;;;10.70;94.80;;;10.84;61.27;95147.88;5024968;28;20508;-57
2022/09/23 01:09:45;;;;;;;4.50;4.10;;;10.70;94.50;;;10.84;61.36;95141.81;5024310;28;20542;-58
2022/09/23 01:12:24;;;;;;;5.43;4.93;;;10.70;94.80;;;10.82;62.21;95152.47;5025068;28;20456;-57
2022/09/23 01:14:56;;;;;;;7.80;5.50;;;10.70;95.10;;;10.84;61.72;95152.34;5023549;28;20657;-58
2022/09/23 01:17:28;;;;;;;4.47;4.17;;;10.70;94.80;;;10.85;61.71;95151.38;5021014;28;20477;-56
2022/09/23 01:20:15;;;;;;;4.30;3.93;;;10.70;95.10;;;10.87;61.85;95149.44;5023713;28;20534;-56
2022/09/23 01:22:45;;;;;;;4.73;4.33;;;10.80;94.90;;;10.88;61.44;95148.47;5024330;28;21035;-56
2022/09/23 01:25:34;;;;;;;6.70;3.97;;;10.70;94.80;;;10.91;61.46;95158.72;5021519;28;20508;-57
2022/09/23 01:28:23;;;;;;;5.43;4.93;;;10.80;94.90;;;10.92;61.60;95155.13;5022069;28;20503;-56
2022/09/23 01:30:53;;;;;;;4.30;4.00;;;10.80;94.90;;;10.93;61.79;95156.78;5022317;28;20479;-56
2022/09/23 01:33:23;;;;;;;4.60;4.23;;;10.80;95.20;;;10.92;61.49;95155.97;5024845;28;20448;-57
2022/09/23 01:36:12;;;;;;;5.13;4.73;;;10.80;95.10;;;10.91;62.06;95156.94;5022797;28;20576;-56
2022/09/23 01:38:44;;;;;;;5.33;4.93;;;10.80;95.40;;;10.91;61.83;95162.19;5022168;28;20437;-56
2022/09/23 01:41:20;;;;;;;5.80;5.30;;;10.80;95.40;;;10.92;61.91;95160.38;5024580;28;20973;-56
2022/09/23 01:43:50;;;;;;;5.80;4.47;;;10.80;95.40;;;10.91;62.06;95161.38;5022799;28;20476;-58
2022/09/23 01:46:20;;;;;;;5.67;5.27;;;10.80;95.80;;;10.91;62.48;95159.56;5024760;28;20445;-56
2022/09/23 01:48:51;;;;;;;5.13;4.83;;;10.80;96.00;;;10.90;62.35;95159.69;5023130;28;20554;-56
2022/09/23 01:51:22;;;;;;;4.80;4.40;;;10.80;96.00;;;10.91;62.45;95164.81;5024928;28;20448;-57
2022/09/23 01:53:52;;;;;;;5.27;4.80;;;10.80;95.90;;;10.91;62.25;95167.44;5024692;28;20885;-58
2022/09/23 01:56:24;;;;;;;6.57;5.40;;;10.80;96.00;;;10.89;62.58;95165.91;5024502;28;20571;-57
2022/09/23 01:58:55;;;;;;;7.60;5.30;;;10.80;96.00;;;10.88;62.91;95156.38;5027393;28;20480;-57
2022/09/23 02:01:28;;;;;;;6.27;5.73;;;10.70;96.30;;;10.88;62.81;95159.00;5028325;28;20444;-58
2022/09/23 02:03:59;;;;;;;5.37;4.97;;;10.70;96.30;;;10.85;62.75;95154.00;5028107;28;20602;-57
2022/09/23 02:06:29;;;;;;;5.03;4.60;;;10.70;96.40;;;10.84;62.56;95160.22;5024989;28;20437;-57
2022/09/23 02:08:59;;;;;;;5.17;4.53;;;10.70;96.40;;;10.83;63.00;95161.19;5028096;28;20469;-57
2022/09/23 02:11:26;;;;;;;4.67;4.37;;;10.70;96.60;;;10.83;62.63;95169.06;5026632;28;20456;-57
2022/09/23 02:13:56;;;;;;;4.93;4.63;;;10.70;96.30;;;10.83;63.02;95164.66;5027744;28;20476;-57
2022/09/23 02:16:28;;;;;;;4.87;4.40;;;10.70;96.60;;;10.85;62.54;95161.91;5026819;28;20511;-57
2022/09/23 02:18:58;;;;;;;5.13;4.73;;;10.70;96.30;;;10.84;62.18;95161.06;5024995;28;20460;-57
2022/09/23 02:21:27;;;;;;;4.93;4.57;;;10.70;96.10;;;10.84;61.99;95161.06;5027257;28;20460;-56
2022/09/23 02:24:00;;;;;;;4.90;4.50;;;10.70;95.80;;;10.84;61.75;95163.69;5027919;28;20492;-57
2022/09/23 02:26:31;;;;;;;4.57;4.07;;;10.70;95.90;;;10.84;61.93;95168.13;5025721;28;20441;-57
2022/09/23 02:29:09;;;;;;;4.23;3.93;;;10.70;95.80;;;10.82;61.79;95164.81;5027621;28;20559;-56
2022/09/23 02:31:41;;;;;;;4.97;4.00;;;10.70;95.70;;;10.82;61.89;95159.53;5027693;28;20440;-58
2022/09/23 02:34:20;;;;;;;5.27;4.50;;;10.70;95.70;;;10.80;61.76;95161.44;5025749;28;20559;-57
2022/09/23 02:36:56;;;;;;;4.47;4.17;;;10.70;95.70;;;10.79;61.86;95165.06;5027683;28;20965;-56
2022/09/23 02:39:24;;;;;;;4.23;3.90;;;10.70;95.70;;;10.79;61.83;95162.44;5027161;28;20503;-56
2022/09/23 02:41:56;;;;;;;4.87;4.47;;;10.70;95.70;;;10.76;61.83;95161.72;5027229;28;20949;-57
2022/09/23 02:44:24;;;;;;;7.40;4.60;;;10.60;95.70;;;10.74;61.90;95163.66;5024640;28;20496;-57
2022/09/23 02:46:52;;;;;;;6.30;4.70;;;10.60;95.70;;;10.73;61.90;95177.78;5027264;28;20480;-58
2022/09/23 02:49:21;;;;;;;4.90;3.90;;;10.60;95.70;;;10.72;61.94;95176.13;5027168;28;20476;-57
2022/09/23 02:51:49;;;;;;;4.17;3.87;;;10.60;95.60;;;10.72;61.87;95175.28;5027293;28;20514;-57
2022/09/23 02:54:19;;;;;;;4.67;4.27;;;10.60;95.70;;;10.69;61.39;95173.75;5027412;28;20858;-57
2022/09/23 02:56:48;;;;;;;4.27;3.87;;;10.60;95.80;;;10.69;61.69;95175.53;5027377;28;20472;-57
2022/09/23 02:59:18;;;;;;;4.43;4.13;;;10.60;95.40;;;10.67;61.61;95173.03;5026873;28;20519;-57
2022/09/23 03:01:58;;;;;;;4.70;4.30;;;10.60;95.40;;;10.68;61.83;95185.25;5027252;28;20452;-57
2022/09/23 03:04:30;;;;;;;7.00;4.40;;;10.60;95.40;;;10.66;61.59;95179.28;5021845;28;20492;-58
2022/09/23 03:07:01;;;;;;;8.60;4.60;;;10.60;95.50;;;10.64;61.63;95181.19;5023536;28;20499;-57
2022/09/23 03:09:31;;;;;;;4.83;3.90;;;10.50;95.50;;;10.63;61.67;95179.56;5026954;28;20468;-58
2022/09/23 03:12:08;;;;;;;4.90;4.40;;;10.50;95.50;;;10.62;61.27;95177.88;5026732;28;20441;-58
2022/09/23 03:14:41;;;;;;;4.07;3.77;;;10.50;95.50;;;10.61;62.04;95172.75;5024979;28;20492;-57
2022/09/23 03:17:14;;;;;;;4.17;3.77;;;10.50;95.70;;;10.59;62.06;95178.13;5023716;28;20567;-58
2022/09/23 03:19:46;;;;;;;5.50;5.10;;;10.50;96.00;;;10.57;62.45;95178.28;5026092;28;20495;-56
2022/09/23 03:22:17;;;;;;;4.93;4.40;;;10.50;96.30;;;10.53;62.69;95170.78;5024942;28;20448;-57
2022/09/23 03:24:45;;;;;;;4.93;4.53;;;10.40;96.50;;;10.50;62.43;95174.53;5026838;28;20579;-59
2022/09/23 03:27:17;;;;;;;5.90;4.90;;;10.40;96.00;;;10.48;62.31;95173.81;5026977;28;20449;-58
2022/09/23 03:29:47;;;;;;;4.70;4.30;;;10.40;96.00;;;10.45;62.30;95173.25;5024417;28;20465;-57
2022/09/23 03:32:18;;;;;;;6.03;5.33;;;10.40;96.10;;;10.43;62.60;95178.63;5026996;28;20433;-57
2022/09/23 03:34:48;;;;;;;5.73;4.60;;;10.30;96.20;;;10.39;62.28;95179.84;5023707;28;20479;-56
2022/09/23 03:37:18;;;;;;;6.80;4.93;;;10.30;96.00;;;10.32;62.60;95176.88;5026543;28;20814;-58
2022/09/23 03:39:48;;;;;;;4.23;3.93;;;10.30;96.20;;;10.28;62.95;95174.66;5026659;28;20480;-57
2022/09/23 03:42:19;;;;;;;5.03;4.20;;;10.20;96.40;;;10.23;62.47;95177.66;5025508;28;20944;-56
2022/09/23 03:44:47;;;;;;;6.10;5.60;;;10.10;96.50;;;10.17;62.80;95183.44;5026522;28;20876;-58
2022/09/23 03:47:17;;;;;;;5.20;4.70;;;10.10;96.30;;;10.13;62.64;95182.03;5026359;28;20444;-56
2022/09/23 03:49:47;;;;;;;5.50;5.10;;;10.00;96.40;;;10.06;63.00;95181.72;5026499;28;20560;-57
2022/09/23 03:52:14;;;;;;;7.83;5.37;;;10.00;96.60;;;10.00;63.30;95190.94;5026040;28;20456;-57
2022/09/23 03:54:41;;;;;;;6.03;5.37;;;9.90;97.10;;;9.92;63.16;95185.50;5026161;28;20969;-58
2022/09/23 03:57:10;;;;;;;8.23;6.30;;;9.90;97.20;;;9.89;63.62;95195.44;5026070;28;20452;-57
2022/09/23 03:59:37;;;;;;;11.83;6.60;;;9.80;97.40;;;9.84;63.61;95190.56;5026658;28;20520;-56
2022/09/23 04:02:06;;;;;;;7.53;6.03;;;9.80;97.60;;;9.77;64.29;95192.03;5023653;28;20882;-56
2022/09/23 04:04:36;;;;;;;6.90;6.30;;;9.70;97.90;;;9.72;64.37;95186.34;5024972;28;20492;-56
2022/09/23 04:07:03;;;;;;;7.23;6.47;;;9.70;98.00;;;9.67;64.45;95186.72;5025898;28;20502;-57
2022/09/23 04:09:30;;;;;;;7.67;6.87;;;9.60;98.00;;;9.61;64.31;95195.91;5024994;28;20472;-57
2022/09/23 04:11:58;;;;;;;22.87;6.17;;;9.60;98.10;;;9.58;64.56;95198.78;5025531;28;20461;-57
2022/09/23 04:14:25;;;;;;;8.93;5.70;;;9.50;98.30;;;9.53;64.70;95198.34;5025252;28;20507;-59
2022/09/23 04:16:52;;;;;;;7.80;6.30;;;9.50;98.50;;;9.48;65.56;95195.25;5025294;28;20844;-58
2022/09/23 04:19:20;;;;;;;6.73;6.10;;;9.50;99.00;;;9.44;65.10;95201.72;5024874;28;20473;-58
2022/09/23 04:21:48;;;;;;;7.53;6.77;;;9.40;98.70;;;9.43;65.36;95203.50;5026239;28;21005;-58
2022/09/23 04:24:16;;;;;;;6.63;6.07;;;9.40;99.10;;;9.38;65.32;95199.59;5025060;28;20578;-57
2022/09/23 04:26:44;;;;;;;8.90;6.10;;;9.30;98.90;;;9.37;65.48;95204.00;5025984;28;20453;-58
2022/09/23 04:29:11;;;;;;;6.87;6.10;;;9.30;98.90;;;9.36;65.65;95204.09;5024977;28;20564;-55
2022/09/23 04:31:39;;;;;;;6.60;5.60;;;9.30;99.20;;;9.36;65.34;95204.09;5024877;28;20457;-57
2022/09/23 04:34:06;;;;;;;6.97;5.43;;;9.30;99.10;;;9.36;65.55;95212.84;5024561;28;20560;-55
2022/09/23 04:36:34;;;;;;;9.00;5.60;;;9.30;98.90;;;9.36;65.40;95217.25;5025373;28;20452;-58
2022/09/23 04:39:03;;;;;;;8.67;6.57;;;9.30;99.00;;;9.36;65.03;95219.88;5022251;28;20469;-57
2022/09/23 04:41:30;;;;;;;6.13;5.57;;;9.30;98.90;;;9.34;65.35;95222.63;5024994;28;20452;-56
2022/09/23 04:43:57;;;;;;;5.67;5.20;;;9.30;98.90;;;9.32;65.22;95221.91;5024393;28;20492;-57
2022/09/23 04:46:24;;;;;;;6.30;5.70;;;9.30;98.90;;;9.33;65.39;95234.91;5025062;28;20449;-57
2022/09/23 04:48:52;;;;;;;7.77;6.97;;;9.30;99.10;;;9.36;65.51;95233.00;5024876;28;20507;-57
2022/09/23 04:51:20;;;;;;;6.73;6.13;;;9.30;99.40;;;9.38;65.30;95234.53;5024811;28;20448;-56
2022/09/23 04:53:49;;;;;;;6.73;6.03;;;9.30;99.00;;;9.42;65.17;95232.50;5024077;28;20523;-57
2022/09/23 04:56:19;;;;;;;6.53;6.03;;;9.30;98.90;;;9.46;64.98;95231.31;5025035;28;20440;-58
2022/09/23 04:58:47;;;;;;;11.30;6.37;;;9.40;98.90;;;9.49;65.25;95228.44;5023571;28;20544;-58
2022/09/23 05:01:15;;;;;;;9.27;7.80;;;9.40;99.00;;;9.55;65.21;95229.72;5021430;28;20459;-58
2022/09/23 05:03:42;;;;;;;6.93;6.20;;;9.50;99.30;;;9.60;65.62;95225.75;5022434;28;20492;-59
2022/09/23 05:06:12;;;;;;;12.63;6.77;;;9.50;99.40;;;9.67;65.32;95226.09;5020760;28;20484;-56
2022/09/23 05:08:40;;;;;;;7.20;6.33;;;9.60;99.40;;;9.74;65.37;95235.13;5025302;28;20475;-58
2022/09/23 05:11:07;;;;;;;8.07;6.60;;;9.60;99.30;;;9.81;65.36;95235.47;5027404;28;20552;-57
2022/09/23 05:13:36;;;;;;;7.90;7.20;;;9.70;99.30;;;9.88;65.36;95239.25;5024490;28;20453;-57
2022/09/23 05:16:06;;;;;;;7.40;6.20;;;9.80;99.40;;;9.94;65.08;95238.75;5022012;28;20456;-57
2022/09/23 05:18:34;;;;;;;19.93;6.43;;;9.80;99.10;;;10.00;64.97;95232.97;5025596;28;20441;-55
2022/09/23 05:21:01;;;;;;;7.23;6.63;;;9.90;99.20;;;10.07;65.06;95238.59;5024153;28;20530;-58
2022/09/23 05:23:29;;;;;;;6.63;5.97;;;10.00;98.70;;;10.14;65.01;95233.63;5024948;28;20832;-57
2022/09/23 05:25:57;;;;;;;6.33;5.73;;;10.00;98.60;;;10.21;64.23;95240.06;5024778;28;21019;-58
2022/09/23 05:28:25;;;;;;;8.87;7.70;;;10.10;98.30;;;10.25;64.74;95236.19;5026666;28;20483;-57
2022/09/23 05:30:55;;;;;;;6.63;6.03;;;10.10;98.30;;;10.32;64.58;95241.78;5024991;28;20469;-56
2022/09/23 05:33:22;;;;;;;13.13;5.93;;;10.20;98.30;;;10.36;63.99;95249.31;5026793;28;21085;-56
2022/09/23 05:35:49;;;;;;;7.07;5.37;;;10.30;98.00;;;10.33;64.19;95254.84;5028619;28;20465;-57
2022/09/23 05:38:17;;;;;;;16.43;6.40;;;10.20;98.00;;;10.27;64.07;95249.22;5030937;28;20448;-57
2022/09/23 05:40:44;;;;;;;10.47;6.60;;;10.20;97.90;;;10.24;64.35;95252.94;5027947;28;20539;-57
2022/09/23 05:43:11;;;;;;;10.53;6.50;;;10.20;98.20;;;10.30;64.81;95255.06;5028234;28;20441;-55
2022/09/23 05:45:39;;;;;;;7.20;5.53;;;10.20;98.50;;;10.42;64.17;95255.03;5028549;28;21016;-58
2022/09/23 05:48:08;;;;;;;14.13;6.73;;;10.30;98.20;;;10.53;64.14;95250.53;5028338;28;20449;-55
2022/09/23 05:50:35;;;;;;;8.10;6.30;;;10.40;98.00;;;10.67;63.71;95246.69;5028229;28;20476;-56
2022/09/23 05:53:03;;;;;;;6.13;5.63;;;10.50;97.90;;;10.81;63.55;95242.88;5028585;28;20452;-58
2022/09/23 05:55:30;;;;;;;7.07;5.90;;;10.60;97.70;;;10.96;63.46;95253.91;5028019;28;20475;-56
2022/09/23 05:57:57;;;;;;;5.70;5.20;;;10.80;97.50;;;11.08;63.08;95238.84;5028070;28;20526;-55
2022/09/23 06:00:25;;;;;;;5.83;5.40;;;10.90;97.60;;;11.20;62.73;95237.78;5027625;28;20475;-55
2022/09/23 06:02:52;;;;;;;7.10;5.70;;;11.00;97.30;;;11.32;62.55;95243.75;5027747;28;20452;-56
2022/09/23 06:05:21;;;;;;;6.43;5.83;;;11.10;97.00;;;11.44;62.04;95245.31;5026052;28;20496;-57
2022/09/23 06:07:48;;;;;;;7.53;5.90;;;11.30;96.90;;;11.71;61.88;95238.56;5027568;28;20570;-56
2022/09/23 06:10:16;;;;;;;7.73;5.00;;;11.50;96.90;;;12.02;61.36;95239.28;5025079;28;20499;-56
2022/09/23 06:12:44;;;;;;;5.93;5.23;;;11.70;96.50;;;12.35;60.75;95246.88;5027485;28;20923;-57
2022/09/23 06:15:12;;;;;;;5.97;5.47;;;12.00;96.00;;;12.65;60.03;95234.44;5027089;28;20473;-58
2022/09/23 06:17:39;;;;;;;11.23;5.50;;;12.30;95.60;;;12.99;60.08;95244.47;5027317;28;20623;-57
2022/09/23 06:20:08;;;;;;;5.47;5.00;;;12.60;95.70;;;13.29;58.91;95243.34;5027551;28;20531;-57
2022/09/23 06:22:37;;;;;;;6.80;5.33;;;12.90;94.90;;;13.43;58.22;95244.69;5026921;28;21017;-56
2022/09/23 06:25:06;;;;;;;5.97;5.47;;;13.10;94.10;;;13.50;58.05;95251.06;5027019;28;20499;-56
2022/09/23 06:27:33;;;;;;;5.30;4.63;;;13.20;93.90;;;13.56;57.65;95247.81;5026957;28;20587;-57
2022/09/23 06:30:00;;;;;;;6.10;5.60;;;13.30;93.40;;;13.59;57.55;95244.88;5026910;28;20496;-57
2022/09/23 06:32:28;;;;;;;5.67;4.70;;;13.40;93.40;;;13.70;57.65;95243.00;5027666;28;20511;-56
2022/09/23 06:34:55;;;;;;;5.33;4.90;;;13.50;93.20;;;13.81;56.88;95237.50;5027595;28;20468;-57
2022/09/23 06:37:23;;;;;;;4.80;4.50;;;13.60;92.90;;;13.84;57.07;95242.47;5027029;28;20452;-56
2022/09/23 06:39:53;;;;;;;8.50;5.50;;;13.60;92.60;;;13.85;56.81;95241.50;5026749;28;20810;-55
2022/09/23 06:42:21;;;;;;;7.00;4.90;;;13.60;92.60;;;13.86;56.89;95237.88;5026851;28;20820;-56
2022/09/23 06:44:48;;;;;;;8.80;5.17;;;13.70;92.40;;;13.92;56.81;95236.44;5026975;28;20488;-59
2022/09/23 06:47:15;;;;;;;8.87;5.30;;;13.70;92.30;;;14.26;56.71;95239.22;5027029;28;20536;-57
2022/09/23 06:49:43;;;;;;;4.90;4.50;;;14.00;92.60;;;14.69;55.74;95242.84;5025389;28;21019;-56
2022/09/23 06:52:10;;;;;;;20.10;5.30;;;14.30;92.10;;;15.13;55.09;95249.03;5024017;28;20991;-55
2022/09/23 06:54:37;;;;;;;5.13;4.73;;;14.70;91.70;;;15.56;54.07;95248.03;5022277;28;20669;-57
2022/09/23 06:57:06;;;;;;;5.13;4.70;;;15.10;91.00;;;15.83;53.39;95247.97;5025077;28;20540;-57
2022/09/23 06:59:34;;;;;;;5.93;4.90;;;15.40;90.30;;;15.92;52.80;95249.66;5023943;28;20503;-55
2022/09/23 07:02:01;;;;;;;4.57;4.27;;;15.50;88.80;;;15.94;52.75;95253.81;5021052;28;20539;-55
2022/09/23 07:04:28;;;;;;;5.37;3.67;;;15.70;87.90;;;15.98;52.43;95254.31;5023646;28;20519;-56
2022/09/23 07:06:56;;;;;;;8.77;4.50;;;15.70;87.10;;;16.06;52.22;95258.78;5026008;28;20460;-57
2022/09/23 07:09:23;;;;;;;6.77;4.23;;;15.80;86.70;;;16.33;52.22;95260.31;5025046;28;20480;-54
2022/09/23 07:11:50;;;;;;;5.30;4.33;;;16.00;86.70;;;16.58;51.45;95260.31;5025478;28;20465;-55
2022/09/23 07:14:19;;;;;;;4.20;3.87;;;16.20;85.70;;;16.88;51.29;95260.63;5025767;28;20481;-56
2022/09/23 07:16:49;;;;;;;10.90;4.97;;;16.50;85.40;;;17.24;51.34;95261.00;5022397;28;20457;-56
2022/09/23 07:19:17;;;;;;;4.00;3.63;;;16.80;84.50;;;17.66;50.23;95259.00;5026116;28;20511;-57
2022/09/23 07:21:44;;;;;;;4.40;4.10;;;17.30;82.40;;;18.18;49.78;95261.06;5025239;28;20460;-55
2022/09/23 07:24:11;;;;;;;6.20;3.63;;;17.70;83.40;;;18.73;48.20;95266.28;5024885;28;20496;-57
2022/09/23 07:26:39;;;;;;;3.83;3.53;;;18.20;80.50;;;19.30;48.93;95257.75;5026862;28;20518;-56
2022/09/23 07:29:06;;;;;;;3.10;2.90;;;18.90;81.00;;;20.03;47.08;95254.31;5022674;28;20480;-55
2022/09/23 07:31:35;;;;;;;3.53;3.30;;;19.40;77.90;;;20.59;45.90;95251.78;5022619;28;20460;-59
2022/09/23 07:34:02;;;;;;;3.67;3.37;;;20.10;73.40;;;21.09;45.07;95254.44;5024825;28;20503;-56
2022/09/23 07:36:31;;;;;;;3.10;2.90;;;20.70;73.20;;;21.67;44.79;95258.69;5026577;28;20471;-56
2022/09/23 07:39:01;;;;;;;3.93;3.30;;;21.30;71.30;;;22.31;43.68;95260.16;5024283;28;20480;-57
2022/09/23 07:41:28;;;;;;;4.33;3.10;;;22.00;68.80;;;22.94;42.95;95269.69;5025467;28;20457;-56
2022/09/23 07:43:57;;;;;;;3.40;3.20;;;22.60;66.80;;;23.34;41.22;95258.13;5025083;28;20584;-55
2022/09/23 07:46:26;;;;;;;3.70;3.40;;;23.20;63.40;;;23.58;41.12;95260.13;5022438;28;20969;-56
2022/09/23 07:48:55;;;;;;;3.67;3.47;;;23.40;61.50;;;23.78;40.42;95264.56;5025519;28;20522;-56
2022/09/23 07:51:24;;;;;;;4.80;3.53;;;23.70;59.80;;;23.77;39.82;95263.75;5025169;28;20594;-57
2022/09/23 07:53:52;;;;;;;6.17;3.40;;;23.70;58.10;;;23.55;39.24;95268.59;5022983;28;20870;-57
2022/09/23 07:56:20;;;;;;;5.70;3.47;;;23.60;57.50;;;23.18;39.63;95275.50;5022237;28;20464;-57
2022/09/23 07:58:58;;;;;;;4.30;3.13;;;23.30;56.60;;;22.85;37.62;95271.78;5022535;28;20477;-56
2022/09/23 08:01:27;;;;;;;3.60;3.30;;;22.90;53.80;;;22.45;39.21;95263.69;5025416;28;20448;-57
2022/09/23 08:03:56;;;;;;;7.93;2.87;;;22.50;56.10;;;22.03;39.96;95263.78;5025226;28;20464;-56
2022/09/23 08:06:24;;;;;;;3.97;3.57;;;22.10;56.30;;;21.76;39.84;95278.91;5022515;28;20949;-57
2022/09/23 08:08:51;;;;;;;10.30;3.37;;;21.80;56.40;;;21.43;38.80;95282.22;5025801;28;20472;-56
2022/09/23 08:11:18;;;;;;;4.23;3.70;;;21.40;55.40;;;21.31;39.73;95270.41;5024386;28;20456;-56
2022/09/23 08:13:46;;;;;;;4.07;2.90;;;21.20;56.60;;;21.24;41.02;95278.41;5024093;28;20444;-56
2022/09/23 08:16:13;;;;;;;4.33;3.47;;;21.20;58.00;;;21.61;41.20;95283.56;5024762;28;20526;-58
2022/09/23 08:18:44;;;;;;;3.17;2.87;;;21.40;58.60;;;22.01;40.26;95271.19;5024736;28;20526;-55
2022/09/23 08:21:13;;;;;;;4.87;3.20;;;21.70;57.10;;;22.34;40.26;95277.72;5021843;28;20624;-57
2022/09/23 08:23:40;;;;;;;3.43;3.17;;;22.00;57.30;;;22.74;39.13;95275.03;5022018;28;20492;-56
2022/09/23 08:26:07;;;;;;;3.27;3.07;;;22.40;57.00;;;23.23;39.00;95268.44;5025897;28;20612;-55
2022/09/23 08:28:35;;;;;;;3.43;3.23;;;22.90;56.50;;;23.78;38.42;95278.84;5024496;28;20821;-57
2022/09/23 08:31:02;;;;;;;2.43;2.33;;;23.30;55.90;;;23.96;37.30;95263.94;5025222;28;21040;-56
2022/09/23 08:33:30;;;;;;;4.00;2.70;;;23.50;54.40;;;23.77;37.45;95268.31;5024136;28;20475;-57
2022/09/23 08:35:59;;;;;;;6.27;2.30;;;23.50;53.60;;;23.64;36.72;95263.81;5024851;28;20533;-55
2022/09/23 08:38:28;;;;;;;3.77;2.03;;;23.50;53.20;;;23.84;36.05;95260.22;5024681;28;21129;-56
2022/09/23 08:41:04;;;;;;;2.20;2.10;;;23.60;52.70;;;23.97;35.90;95265.59;5025040;28;20879;-55
2022/09/23 08:43:33;;;;;;;5.40;2.70;;;23.60;52.20;;;23.91;36.73;95259.19;5018434;28;20456;-57
2022/09/23 08:46:03;;;;;;;3.93;1.87;;;23.60;52.10;;;23.92;36.34;95260.00;5023820;28;20584;-56
2022/09/23 08:48:32;;;;;;;3.40;3.20;;;23.70;52.20;;;24.21;36.31;95260.50;5023516;28;20952;-57
2022/09/23 08:51:04;;;;;;;2.50;1.93;;;23.80;52.20;;;24.51;35.39;95256.16;5022964;28;20468;-56
2022/09/23 08:53:34;;;;;;;2.47;2.33;;;24.10;52.00;;;24.93;35.61;95263.75;5020698;28;20453;-56
2022/09/23 08:56:05;;;;;;;3.70;2.87;;;24.40;51.50;;;25.04;34.08;95260.31;5023457;28;20555;-56
2022/09/23 08:58:48;;;;;;;2.10;2.00;;;24.50;49.10;;;24.66;34.69;95260.44;5024341;28;20468;-56
2022/09/23 09:01:20;;;;;;;2.80;2.23;;;24.40;50.20;;;24.38;35.25;95258.13;5023878;28;20527;-57
2022/09/23 09:03:50;;;;;;;2.23;1.90;;;24.10;50.00;;;24.38;35.48;95253.56;5024796;28;20818;-57
2022/09/23 09:06:21;;;;;;;9.17;3.57;;;24.10;50.30;;;24.52;35.11;95251.59;5026473;28;20476;-56
2022/09/23 09:08:55;;;;;;;6.83;3.53;;;24.10;50.30;;;24.84;34.80;95244.34;5028701;28;20937;-55
2022/09/23 09:11:24;;;;;;;8.80;2.30;;;24.40;49.90;;;25.01;33.81;95247.31;5028353;28;20858;-56
2022/09/23 09:13:59;;;;;;;6.23;3.57;;;24.50;49.60;;;24.82;33.94;95245.63;5028659;28;20552;-56
2022/09/23 09:16:45;;;;;;;4.30;2.80;;;24.40;48.70;;;24.37;34.09;95249.25;5027463;28;20466;-57
2022/09/23 09:19:18;;;;;;;3.20;2.33;;;24.20;48.60;;;24.27;34.15;95247.00;5026602;28;20493;-58
2022/09/23 09:21:46;;;;;;;2.70;2.50;;;24.00;49.10;;;24.42;33.99;95238.66;5025231;28;20913;-58
2022/09/23 09:24:19;;;;;;;2.80;2.30;;;24.10;49.00;;;24.75;34.26;95252.94;5026962;28;20500;-61
2022/09/23 09:26:46;;;;;;;4.70;3.00;;;24.30;49.00;;;25.15;33.72;95255.28;5024600;28;20480;-56
2022/09/23 09:29:16;;;;;;;2.77;2.57;;;24.60;48.80;;;25.52;33.27;95252.66;5028192;28;20473;-57
2022/09/23 09:31:45;;;;;;;4.10;3.60;;;24.90;48.10;;;25.89;32.55;95247.25;5026460;28;20460;-57
2022/09/23 09:34:20;;;;;;;1.70;1.60;;;25.30;47.90;;;26.24;32.16;95254.69;5028399;28;20924;-57
2022/09/23 09:36:49;;;;;;;4.50;1.87;;;25.70;47.00;;;26.51;31.19;95248.91;5026926;28;20479;-57
2022/09/23 09:39:18;;;;;;;3.53;2.03;;;25.90;45.90;;;26.47;31.02;95253.94;5027036;28;20486;-58
2022/09/23 09:41:47;;;;;;;2.00;1.90;;;25.90;45.20;;;26.19;31.32;95246.47;5028707;28;20448;-58
2022/09/23 09:44:23;;;;;;;4.50;2.80;;;25.80;44.80;;;25.76;31.46;95249.06;5030263;28;20470;-57
2022/09/23 09:46:57;;;;;;;2.07;1.80;;;25.50;44.70;;;25.36;31.26;95245.97;5027600;28;21117;-55
2022/09/23 09:49:32;;;;;;;2.03;1.93;;;25.10;44.70;;;24.99;31.68;95257.47;5022827;28;20518;-57
2022/09/23 09:52:22;;;;;;;1.90;1.80;;;24.80;45.00;;;24.46;31.75;95253.31;5027667;28;20444;-58
2022/09/23 09:54:51;;;;;;;1.93;1.83;;;24.30;45.10;;;24.28;32.94;95247.84;5021667;28;20925;-58
2022/09/23 09:57:31;;;;;;;2.10;2.00;;;24.10;45.80;;;24.41;32.79;95252.31;5024541;28;20449;-57
2022/09/23 09:59:59;;;;;;;2.20;1.97;;;24.00;46.30;;;24.69;32.87;95241.16;5027592;28;20553;-57
2022/09/23 10:02:29;;;;;;;1.90;1.80;;;24.20;46.70;;;25.04;32.74;95241.47;5028058;28;20440;-56
2022/09/23 10:05:00;;;;;;;3.23;1.93;;;24.50;46.50;;;25.39;32.09;95243.66;5027368;28;20855;-56
2022/09/23 10:07:29;;;;;;;2.10;1.90;;;24.80;46.20;;;25.70;30.96;95243.72;5027346;28;20929;-58
2022/09/23 10:10:00;;;;;;;2.23;2.03;;;25.10;44.60;;;25.81;30.67;95242.16;5026421;28;20622;-57
2022/09/23 10:12:27;;;;;;;1.87;1.77;;;25.20;44.60;;;25.69;30.87;95240.22;5026860;28;20608;-57
2022/09/23 10:14:56;;;;;;;1.93;1.83;;;25.30;44.30;;;25.73;30.45;95227.94;5027213;28;20551;-57
2022/09/23 10:17:26;;;;;;;3.43;1.73;;;25.30;43.90;;;25.84;30.65;95236.31;5026677;28;20460;-55
2022/09/23 10:19:59;;;;;;;3.67;2.03;;;25.40;43.30;;;25.90;30.72;95228.16;5027099;28;20528;-56
2022/09/23 10:22:28;;;;;;;2.23;2.13;;;25.40;43.70;;;26.04;30.75;95225.31;5025154;28;20440;-57
2022/09/23 10:25:02;;;;;;;1.60;1.50;;;25.50;43.80;;;26.21;30.10;95228.19;5027199;28;20475;-57
2022/09/23 10:27:31;;;;;;;2.20;2.00;;;25.70;43.50;;;26.40;30.13;95224.38;5027695;28;20525;-57
2022/09/23 10:30:02;;;;;;;3.50;2.00;;;25.90;43.00;;;26.58;29.61;95222.66;5027529;28;20514;-56